עמוד ראשי
METAR-TAF:

METAR-TAF

שדות תעופה :

Resistencia, ארגנטינה

קו רוחב: 27-27S, קו אורך: 059-03W, גובה: 53מטר

תצפית מזג אוויר נוכחית

הדו"ח נערך לפני 58דקות, בשעה 01:00 UTC
רוח 4קשר מכיוון דרום/דרום-מזרח
טמפרטורת 23 צלסיוס
לחות 89%
לחץ 1012 hPa
ראות 10 קילומטר או יותר
מעונן בגובה 4400רגל

METAR: SARE 200100Z 15004KT 9999 OVC044 23/21 Q1012

זמן: 22:58 (01:58 UTC)

תחזית

הדו"ח נערך לפני 2 שעות ו 58דקות, בשעה 23:00 UTC
תחזית בתוקף מ 20 ב 00 UTC עד 20 ב 24 UTC
רוח 5קשר מכיוון דרום/דרום-מזרח
ראות 10 קילומטר או יותר
עננים פזורים בגובה 2500רגל
עננים בינוניים בגובה 6000רגל
הסתברות 40%
20 ב 08 UTC עד 20 ב 12 UTC
ראות: 5000מטר
עננים בינוניים בגובה 2000רגל
אד,

TAF: SARE 192300Z 2000/2024 16005KT 9999 SCT025 BKN060 TX28/2018Z TN18/2010Z PROB40 2008/2012 5000 BR BKN020

תצפיות ותחזיות מזג אוויר לגבי יותר מ- 4,000 שדות תעופה ברחבי העולם. דוחות METAR ו- TAF.

התחנות הזמינות מסומנות בנקודות צהובות ואדומות על גבי המפה.

העבר את העכבר לנקודה הצבעונית על מנת לראות את שם התחנה.

לאחר מכן, לחץ כדי לראות את תוכן ואת תחזיות מזג האוויר.

כדי לשנות את המפה: לחץ על הכפתורים הירוקים עם הפלוס השחור כדי להתקרב; על הכפתור הירוק עם המקף כדי להתרחק; או בחיצים הירוקים למפות סמוכות.


METAR-TAF: